sensor_id;sensor_type;location;lat;lon;timestamp;temperature;humidity
68189;DHT22;66299;47.514;19.218;2023-02-12T00:01:43;4.12;84.54
68189;DHT22;66299;47.514;19.218;2023-02-12T00:04:11;4.08;84.89
68189;DHT22;66299;47.514;19.218;2023-02-12T00:06:47;4.15;84.68
68189;DHT22;66299;47.514;19.218;2023-02-12T00:09:17;4.15;84.79
68189;DHT22;66299;47.514;19.218;2023-02-12T00:11:46;3.98;85.18
68189;DHT22;66299;47.514;19.218;2023-02-12T00:14:16;4.01;85.22
68189;DHT22;66299;47.514;19.218;2023-02-12T00:16:44;4.06;85.01
68189;DHT22;66299;47.514;19.218;2023-02-12T00:19:13;3.99;85.29
68189;DHT22;66299;47.514;19.218;2023-02-12T00:21:43;4.05;85.52
68189;DHT22;66299;47.514;19.218;2023-02-12T00:24:11;4.04;85.47
68189;DHT22;66299;47.514;19.218;2023-02-12T00:26:41;3.80;86.26
68189;DHT22;66299;47.514;19.218;2023-02-12T00:29:10;3.78;86.46
68189;DHT22;66299;47.514;19.218;2023-02-12T00:31:40;3.91;86.12
68189;DHT22;66299;47.514;19.218;2023-02-12T00:34:10;3.90;86.44
68189;DHT22;66299;47.514;19.218;2023-02-12T00:36:39;3.87;86.77
68189;DHT22;66299;47.514;19.218;2023-02-12T00:39:09;3.90;86.61
68189;DHT22;66299;47.514;19.218;2023-02-12T00:41:37;4.04;86.52
68189;DHT22;66299;47.514;19.218;2023-02-12T00:44:07;4.14;86.56
68189;DHT22;66299;47.514;19.218;2023-02-12T00:46:35;4.08;86.55
68189;DHT22;66299;47.514;19.218;2023-02-12T00:49:06;4.11;86.86
68189;DHT22;66299;47.514;19.218;2023-02-12T00:51:35;4.22;86.73
68189;DHT22;66299;47.514;19.218;2023-02-12T00:54:04;4.12;86.65
68189;DHT22;66299;47.514;19.218;2023-02-12T00:56:32;4.14;86.51
68189;DHT22;66299;47.514;19.218;2023-02-12T00:59:03;4.23;86.46
68189;DHT22;66299;47.514;19.218;2023-02-12T01:01:33;4.23;86.59
68189;DHT22;66299;47.514;19.218;2023-02-12T01:04:02;4.19;86.53
68189;DHT22;66299;47.514;19.218;2023-02-12T01:06:33;4.26;86.53
68189;DHT22;66299;47.514;19.218;2023-02-12T01:09:01;4.32;86.26
68189;DHT22;66299;47.514;19.218;2023-02-12T01:11:30;4.31;86.40
68189;DHT22;66299;47.514;19.218;2023-02-12T01:13:58;4.25;86.24
68189;DHT22;66299;47.514;19.218;2023-02-12T01:16:28;4.16;86.68
68189;DHT22;66299;47.514;19.218;2023-02-12T01:19:03;4.15;86.82
68189;DHT22;66299;47.514;19.218;2023-02-12T01:21:33;4.09;87.05
68189;DHT22;66299;47.514;19.218;2023-02-12T01:24:04;4.14;86.86
68189;DHT22;66299;47.514;19.218;2023-02-12T01:26:33;4.08;87.12
68189;DHT22;66299;47.514;19.218;2023-02-12T01:29:04;4.11;87.09
68189;DHT22;66299;47.514;19.218;2023-02-12T01:31:35;4.06;87.15
68189;DHT22;66299;47.514;19.218;2023-02-12T01:34:09;3.93;87.51
68189;DHT22;66299;47.514;19.218;2023-02-12T01:36:38;4.15;87.14
68189;DHT22;66299;47.514;19.218;2023-02-12T01:39:06;3.93;87.28
68189;DHT22;66299;47.514;19.218;2023-02-12T01:41:42;4.16;87.08
68189;DHT22;66299;47.514;19.218;2023-02-12T01:44:18;4.16;87.29
68189;DHT22;66299;47.514;19.218;2023-02-12T01:46:49;4.01;87.47
68189;DHT22;66299;47.514;19.218;2023-02-12T01:49:21;3.91;87.84
68189;DHT22;66299;47.514;19.218;2023-02-12T01:51:53;3.74;88.25
68189;DHT22;66299;47.514;19.218;2023-02-12T01:54:24;3.74;88.33
68189;DHT22;66299;47.514;19.218;2023-02-12T01:56:54;3.66;88.64
68189;DHT22;66299;47.514;19.218;2023-02-12T01:59:25;3.71;88.47
68189;DHT22;66299;47.514;19.218;2023-02-12T02:01:57;3.60;88.88
68189;DHT22;66299;47.514;19.218;2023-02-12T02:04:29;3.54;88.75
68189;DHT22;66299;47.514;19.218;2023-02-12T02:07:01;3.63;88.81
68189;DHT22;66299;47.514;19.218;2023-02-12T02:09:32;3.60;88.71
68189;DHT22;66299;47.514;19.218;2023-02-12T02:12:03;3.67;88.76
68189;DHT22;66299;47.514;19.218;2023-02-12T02:14:50;3.57;88.59
68189;DHT22;66299;47.514;19.218;2023-02-12T02:17:38;3.44;89.29
68189;DHT22;66299;47.514;19.218;2023-02-12T02:20:33;3.60;88.77
68189;DHT22;66299;47.514;19.218;2023-02-12T02:23:29;3.67;88.89
68189;DHT22;66299;47.514;19.218;2023-02-12T02:29:49;3.54;88.91
68189;DHT22;66299;47.514;19.218;2023-02-12T02:32:26;3.69;88.84
68189;DHT22;66299;47.514;19.218;2023-02-12T02:35:02;3.60;88.71
68189;DHT22;66299;47.514;19.218;2023-02-12T02:37:36;3.62;88.58
68189;DHT22;66299;47.514;19.218;2023-02-12T02:40:09;3.67;88.90
68189;DHT22;66299;47.514;19.218;2023-02-12T02:42:42;3.52;88.95
68189;DHT22;66299;47.514;19.218;2023-02-12T02:45:14;3.74;88.81
68189;DHT22;66299;47.514;19.218;2023-02-12T02:47:46;3.62;88.91
68189;DHT22;66299;47.514;19.218;2023-02-12T02:50:19;3.52;89.22
68189;DHT22;66299;47.514;19.218;2023-02-12T02:52:52;3.54;88.83
68189;DHT22;66299;47.514;19.218;2023-02-12T02:55:25;3.43;89.34
68189;DHT22;66299;47.514;19.218;2023-02-12T02:57:57;3.37;89.45
68189;DHT22;66299;47.514;19.218;2023-02-12T03:00:33;3.26;89.53
68189;DHT22;66299;47.514;19.218;2023-02-12T03:03:08;3.13;89.83
68189;DHT22;66299;47.514;19.218;2023-02-12T03:05:42;2.88;90.38
68189;DHT22;66299;47.514;19.218;2023-02-12T03:08:18;2.71;90.88
68189;DHT22;66299;47.514;19.218;2023-02-12T03:10:53;2.67;91.37
68189;DHT22;66299;47.514;19.218;2023-02-12T03:13:27;2.56;91.47
68189;DHT22;66299;47.514;19.218;2023-02-12T03:16:00;2.65;91.59
68189;DHT22;66299;47.514;19.218;2023-02-12T03:18:40;2.71;91.16
68189;DHT22;66299;47.514;19.218;2023-02-12T03:21:12;2.56;91.71
68189;DHT22;66299;47.514;19.218;2023-02-12T03:23:48;2.78;91.77
68189;DHT22;66299;47.514;19.218;2023-02-12T03:26:25;2.65;91.76
68189;DHT22;66299;47.514;19.218;2023-02-12T03:28:55;2.44;91.83
68189;DHT22;66299;47.514;19.218;2023-02-12T03:31:30;2.51;92.12
68189;DHT22;66299;47.514;19.218;2023-02-12T03:36:54;2.19;92.49
68189;DHT22;66299;47.514;19.218;2023-02-12T03:39:29;2.01;92.39
68189;DHT22;66299;47.514;19.218;2023-02-12T03:42:04;1.95;93.25
68189;DHT22;66299;47.514;19.218;2023-02-12T03:44:43;1.78;93.33
68189;DHT22;66299;47.514;19.218;2023-02-12T03:47:20;1.68;93.62
68189;DHT22;66299;47.514;19.218;2023-02-12T03:49:57;1.51;93.84
68189;DHT22;66299;47.514;19.218;2023-02-12T03:52:28;1.55;94.59
68189;DHT22;66299;47.514;19.218;2023-02-12T03:54:57;1.55;94.59
68189;DHT22;66299;47.514;19.218;2023-02-12T03:57:28;1.54;94.57
68189;DHT22;66299;47.514;19.218;2023-02-12T04:00:02;1.51;94.70
68189;DHT22;66299;47.514;19.218;2023-02-12T04:02:37;2.20;94.40
68189;DHT22;66299;47.514;19.218;2023-02-12T04:05:18;2.25;93.09
68189;DHT22;66299;47.514;19.218;2023-02-12T04:07:47;2.26;93.11
68189;DHT22;66299;47.514;19.218;2023-02-12T04:10:17;2.37;92.93
68189;DHT22;66299;47.514;19.218;2023-02-12T04:12:51;1.89;92.84
68189;DHT22;66299;47.514;19.218;2023-02-12T04:15:42;1.65;93.97
68189;DHT22;66299;47.514;19.218;2023-02-12T04:18:18;1.13;94.79
68189;DHT22;66299;47.514;19.218;2023-02-12T04:20:54;1.31;95.04
68189;DHT22;66299;47.514;19.218;2023-02-12T04:23:46;1.34;94.87
68189;DHT22;66299;47.514;19.218;2023-02-12T04:26:21;1.41;94.85
68189;DHT22;66299;47.514;19.218;2023-02-12T04:29:09;1.29;95.05
68189;DHT22;66299;47.514;19.218;2023-02-12T04:31:45;1.39;95.18
68189;DHT22;66299;47.514;19.218;2023-02-12T04:34:19;1.37;95.00
68189;DHT22;66299;47.514;19.218;2023-02-12T04:37:04;1.27;95.22
68189;DHT22;66299;47.514;19.218;2023-02-12T04:39:36;1.12;95.32
68189;DHT22;66299;47.514;19.218;2023-02-12T04:42:07;1.07;95.92
68189;DHT22;66299;47.514;19.218;2023-02-12T04:44:37;1.09;96.36
68189;DHT22;66299;47.514;19.218;2023-02-12T04:47:06;1.03;96.27
68189;DHT22;66299;47.514;19.218;2023-02-12T04:49:35;1.03;96.32
68189;DHT22;66299;47.514;19.218;2023-02-12T04:52:05;0.99;96.46
68189;DHT22;66299;47.514;19.218;2023-02-12T04:54:34;1.04;96.89
68189;DHT22;66299;47.514;19.218;2023-02-12T04:57:03;0.97;96.75
68189;DHT22;66299;47.514;19.218;2023-02-12T04:59:31;0.88;96.56
68189;DHT22;66299;47.514;19.218;2023-02-12T05:02:00;0.81;96.82
68189;DHT22;66299;47.514;19.218;2023-02-12T05:04:29;0.69;96.85
68189;DHT22;66299;47.514;19.218;2023-02-12T05:06:57;0.54;96.83
68189;DHT22;66299;47.514;19.218;2023-02-12T05:09:27;0.06;96.49
68189;DHT22;66299;47.514;19.218;2023-02-12T05:11:55;-0.26;96.56
68189;DHT22;66299;47.514;19.218;2023-02-12T05:14:24;-0.46;97.18
68189;DHT22;66299;47.514;19.218;2023-02-12T05:16:53;-0.61;97.06
68189;DHT22;66299;47.514;19.218;2023-02-12T05:19:22;-0.56;97.65
68189;DHT22;66299;47.514;19.218;2023-02-12T05:21:52;-0.74;97.06
68189;DHT22;66299;47.514;19.218;2023-02-12T05:24:20;-0.77;97.21
68189;DHT22;66299;47.514;19.218;2023-02-12T05:26:51;-0.72;97.59
68189;DHT22;66299;47.514;19.218;2023-02-12T05:29:20;-0.62;98.81
68189;DHT22;66299;47.514;19.218;2023-02-12T05:31:49;-0.73;98.58
68189;DHT22;66299;47.514;19.218;2023-02-12T05:34:18;-0.69;98.63
68189;DHT22;66299;47.514;19.218;2023-02-12T05:36:54;-0.69;98.77
68189;DHT22;66299;47.514;19.218;2023-02-12T05:39:23;-0.84;98.19
68189;DHT22;66299;47.514;19.218;2023-02-12T05:41:55;-0.93;98.06
68189;DHT22;66299;47.514;19.218;2023-02-12T05:44:25;-0.89;98.53
68189;DHT22;66299;47.514;19.218;2023-02-12T05:46:53;-0.65;98.74
68189;DHT22;66299;47.514;19.218;2023-02-12T05:49:21;-0.70;98.69
68189;DHT22;66299;47.514;19.218;2023-02-12T05:51:52;-0.63;98.81
68189;DHT22;66299;47.514;19.218;2023-02-12T05:54:20;-0.51;99.18
68189;DHT22;66299;47.514;19.218;2023-02-12T05:56:49;-0.46;99.17
68189;DHT22;66299;47.514;19.218;2023-02-12T05:59:22;-0.46;99.19
68189;DHT22;66299;47.514;19.218;2023-02-12T06:01:51;-0.73;98.91
68189;DHT22;66299;47.514;19.218;2023-02-12T06:04:26;-1.11;97.99
68189;DHT22;66299;47.514;19.218;2023-02-12T06:06:56;-1.22;97.77
68189;DHT22;66299;47.514;19.218;2023-02-12T06:09:25;-1.22;98.50
68189;DHT22;66299;47.514;19.218;2023-02-12T06:11:56;-1.14;98.71
68189;DHT22;66299;47.514;19.218;2023-02-12T06:14:26;-1.11;98.87
68189;DHT22;66299;47.514;19.218;2023-02-12T06:16:57;-1.07;98.90
68189;DHT22;66299;47.514;19.218;2023-02-12T06:19:26;-1.00;99.31
68189;DHT22;66299;47.514;19.218;2023-02-12T06:21:58;-0.96;99.54
68189;DHT22;66299;47.514;19.218;2023-02-12T06:24:26;-1.04;98.90
68189;DHT22;66299;47.514;19.218;2023-02-12T06:27:04;-1.05;98.48
68189;DHT22;66299;47.514;19.218;2023-02-12T06:29:34;-1.21;98.08
68189;DHT22;66299;47.514;19.218;2023-02-12T06:32:05;-1.22;98.10
68189;DHT22;66299;47.514;19.218;2023-02-12T06:34:34;-1.25;98.23
68189;DHT22;66299;47.514;19.218;2023-02-12T06:37:03;-1.30;97.86
68189;DHT22;66299;47.514;19.218;2023-02-12T06:39:32;-1.30;98.15
68189;DHT22;66299;47.514;19.218;2023-02-12T06:42:01;-1.30;97.86
68189;DHT22;66299;47.514;19.218;2023-02-12T06:44:34;-1.34;97.70
68189;DHT22;66299;47.514;19.218;2023-02-12T06:47:04;-1.13;98.50
68189;DHT22;66299;47.514;19.218;2023-02-12T06:49:33;-1.01;99.12
68189;DHT22;66299;47.514;19.218;2023-02-12T06:52:02;-0.82;99.32
68189;DHT22;66299;47.514;19.218;2023-02-12T06:54:32;-0.68;99.22
68189;DHT22;66299;47.514;19.218;2023-02-12T06:57:01;-0.53;99.15
68189;DHT22;66299;47.514;19.218;2023-02-12T06:59:31;-0.52;98.71
68189;DHT22;66299;47.514;19.218;2023-02-12T07:02:02;-0.51;98.64
68189;DHT22;66299;47.514;19.218;2023-02-12T07:04:31;-0.49;98.76
68189;DHT22;66299;47.514;19.218;2023-02-12T07:07:00;-0.45;98.95
68189;DHT22;66299;47.514;19.218;2023-02-12T07:09:29;-0.28;98.85
68189;DHT22;66299;47.514;19.218;2023-02-12T07:11:58;-0.05;98.60
68189;DHT22;66299;47.514;19.218;2023-02-12T07:14:26;0.05;98.18
68189;DHT22;66299;47.514;19.218;2023-02-12T07:16:56;0.11;97.65
68189;DHT22;66299;47.514;19.218;2023-02-12T07:19:36;0.21;97.94
68189;DHT22;66299;47.514;19.218;2023-02-12T07:22:06;0.41;97.94
68189;DHT22;66299;47.514;19.218;2023-02-12T07:24:36;0.68;97.24
68189;DHT22;66299;47.514;19.218;2023-02-12T07:27:05;0.75;97.44
68189;DHT22;66299;47.514;19.218;2023-02-12T07:29:35;1.03;97.94
68189;DHT22;66299;47.514;19.218;2023-02-12T07:32:04;1.23;97.16
68189;DHT22;66299;47.514;19.218;2023-02-12T07:34:33;1.34;96.84
68189;DHT22;66299;47.514;19.218;2023-02-12T07:37:07;1.61;97.04
68189;DHT22;66299;47.514;19.218;2023-02-12T07:39:35;1.70;96.02
68189;DHT22;66299;47.514;19.218;2023-02-12T07:42:04;1.77;95.89
68189;DHT22;66299;47.514;19.218;2023-02-12T07:44:34;2.02;95.68
68189;DHT22;66299;47.514;19.218;2023-02-12T07:47:02;2.33;94.42
68189;DHT22;66299;47.514;19.218;2023-02-12T07:49:32;2.57;93.79
68189;DHT22;66299;47.514;19.218;2023-02-12T07:52:01;2.58;93.47
68189;DHT22;66299;47.514;19.218;2023-02-12T07:54:30;2.70;93.37
68189;DHT22;66299;47.514;19.218;2023-02-12T07:57:04;2.77;93.36
68189;DHT22;66299;47.514;19.218;2023-02-12T07:59:33;2.78;92.53
68189;DHT22;66299;47.514;19.218;2023-02-12T08:02:02;2.88;92.12
68189;DHT22;66299;47.514;19.218;2023-02-12T08:04:32;3.05;92.05
68189;DHT22;66299;47.514;19.218;2023-02-12T08:07:00;3.22;91.54
68189;DHT22;66299;47.514;19.218;2023-02-12T08:09:33;3.19;91.67
68189;DHT22;66299;47.514;19.218;2023-02-12T08:12:01;3.23;91.73
68189;DHT22;66299;47.514;19.218;2023-02-12T08:14:30;3.56;91.02
68189;DHT22;66299;47.514;19.218;2023-02-12T08:16:58;3.50;90.45
68189;DHT22;66299;47.514;19.218;2023-02-12T08:19:28;3.49;90.62
68189;DHT22;66299;47.514;19.218;2023-02-12T08:22:00;3.78;90.04
68189;DHT22;66299;47.514;19.218;2023-02-12T08:24:29;3.97;89.10
68189;DHT22;66299;47.514;19.218;2023-02-12T08:26:59;4.02;89.05
68189;DHT22;66299;47.514;19.218;2023-02-12T08:29:31;4.12;88.84
68189;DHT22;66299;47.514;19.218;2023-02-12T08:32:02;4.25;88.73
68189;DHT22;66299;47.514;19.218;2023-02-12T08:34:34;4.54;87.48
68189;DHT22;66299;47.514;19.218;2023-02-12T08:37:04;4.60;87.89
68189;DHT22;66299;47.514;19.218;2023-02-12T08:39:33;4.56;87.81
68189;DHT22;66299;47.514;19.218;2023-02-12T08:42:03;4.60;87.32
68189;DHT22;66299;47.514;19.218;2023-02-12T08:44:32;4.66;87.19
68189;DHT22;66299;47.514;19.218;2023-02-12T08:47:01;4.85;86.74
68189;DHT22;66299;47.514;19.218;2023-02-12T08:49:32;5.24;86.10
68189;DHT22;66299;47.514;19.218;2023-02-12T08:52:01;5.14;85.89
68189;DHT22;66299;47.514;19.218;2023-02-12T08:54:30;5.63;84.50
68189;DHT22;66299;47.514;19.218;2023-02-12T08:57:01;5.77;82.97
68189;DHT22;66299;47.514;19.218;2023-02-12T08:59:32;6.41;81.49
68189;DHT22;66299;47.514;19.218;2023-02-12T09:02:00;6.31;80.92
68189;DHT22;66299;47.514;19.218;2023-02-12T09:04:30;6.34;81.27
68189;DHT22;66299;47.514;19.218;2023-02-12T09:06:58;6.75;80.56
68189;DHT22;66299;47.514;19.218;2023-02-12T09:09:28;6.42;80.05
68189;DHT22;66299;47.514;19.218;2023-02-12T09:12:02;6.69;79.27
68189;DHT22;66299;47.514;19.218;2023-02-12T09:14:32;6.75;79.25
68189;DHT22;66299;47.514;19.218;2023-02-12T09:17:03;6.77;78.93
68189;DHT22;66299;47.514;19.218;2023-02-12T09:19:31;6.76;79.22
68189;DHT22;66299;47.514;19.218;2023-02-12T09:22:00;6.92;79.04
68189;DHT22;66299;47.514;19.218;2023-02-12T09:24:29;6.90;78.63
68189;DHT22;66299;47.514;19.218;2023-02-12T09:27:03;6.82;78.94
68189;DHT22;66299;47.514;19.218;2023-02-12T09:29:35;7.11;78.50
68189;DHT22;66299;47.514;19.218;2023-02-12T09:32:05;6.97;77.92
68189;DHT22;66299;47.514;19.218;2023-02-12T09:34:35;7.32;77.73
68189;DHT22;66299;47.514;19.218;2023-02-12T09:37:04;7.21;77.72
68189;DHT22;66299;47.514;19.218;2023-02-12T09:39:33;7.28;77.58
68189;DHT22;66299;47.514;19.218;2023-02-12T09:45:16;7.45;77.13
68189;DHT22;66299;47.514;19.218;2023-02-12T09:47:55;7.62;75.90
68189;DHT22;66299;47.514;19.218;2023-02-12T09:50:32;7.48;76.29
68189;DHT22;66299;47.514;19.218;2023-02-12T09:53:03;7.56;76.40
68189;DHT22;66299;47.514;19.218;2023-02-12T09:55:34;7.66;76.12
68189;DHT22;66299;47.514;19.218;2023-02-12T09:58:10;7.89;74.45
68189;DHT22;66299;47.514;19.218;2023-02-12T10:00:41;8.06;74.24
68189;DHT22;66299;47.514;19.218;2023-02-12T10:03:14;8.07;74.17
68189;DHT22;66299;47.514;19.218;2023-02-12T10:05:48;8.10;73.62
68189;DHT22;66299;47.514;19.218;2023-02-12T10:08:38;8.38;72.80
68189;DHT22;66299;47.514;19.218;2023-02-12T10:11:28;8.37;72.54
68189;DHT22;66299;47.514;19.218;2023-02-12T10:14:09;8.30;72.11
68189;DHT22;66299;47.514;19.218;2023-02-12T10:16:48;8.51;71.65
68189;DHT22;66299;47.514;19.218;2023-02-12T10:19:45;8.64;71.43
68189;DHT22;66299;47.514;19.218;2023-02-12T10:22:25;8.45;71.71
68189;DHT22;66299;47.514;19.218;2023-02-12T10:25:08;8.59;71.23
68189;DHT22;66299;47.514;19.218;2023-02-12T10:27:39;9.17;69.28
68189;DHT22;66299;47.514;19.218;2023-02-12T10:30:16;8.89;69.10
68189;DHT22;66299;47.514;19.218;2023-02-12T10:32:50;8.96;68.55
68189;DHT22;66299;47.514;19.218;2023-02-12T10:35:21;9.07;69.11
68189;DHT22;66299;47.514;19.218;2023-02-12T10:37:57;9.15;68.05
68189;DHT22;66299;47.514;19.218;2023-02-12T10:40:30;8.99;67.89
68189;DHT22;66299;47.514;19.218;2023-02-12T10:43:01;8.69;69.02
68189;DHT22;66299;47.514;19.218;2023-02-12T10:45:31;8.75;69.06
68189;DHT22;66299;47.514;19.218;2023-02-12T10:48:08;8.65;68.99
68189;DHT22;66299;47.514;19.218;2023-02-12T10:50:56;8.61;68.90
68189;DHT22;66299;47.514;19.218;2023-02-12T10:53:31;8.75;68.34
68189;DHT22;66299;47.514;19.218;2023-02-12T10:56:09;8.80;68.47
68189;DHT22;66299;47.514;19.218;2023-02-12T10:58:49;8.93;68.35
68189;DHT22;66299;47.514;19.218;2023-02-12T11:01:23;8.82;68.18
68189;DHT22;66299;47.514;19.218;2023-02-12T11:03:56;8.73;68.51
68189;DHT22;66299;47.514;19.218;2023-02-12T11:06:26;9.02;67.98
68189;DHT22;66299;47.514;19.218;2023-02-12T11:08:56;9.31;67.46
68189;DHT22;66299;47.514;19.218;2023-02-12T11:11:27;9.48;67.14
68189;DHT22;66299;47.514;19.218;2023-02-12T11:14:02;9.68;67.18
68189;DHT22;66299;47.514;19.218;2023-02-12T11:16:32;9.51;66.51
68189;DHT22;66299;47.514;19.218;2023-02-12T11:19:05;9.98;66.76
68189;DHT22;66299;47.514;19.218;2023-02-12T11:21:35;9.67;65.92
68189;DHT22;66299;47.514;19.218;2023-02-12T11:24:21;9.68;66.67
68189;DHT22;66299;47.514;19.218;2023-02-12T11:27:12;9.95;66.10
68189;DHT22;66299;47.514;19.218;2023-02-12T11:29:41;10.26;65.39
68189;DHT22;66299;47.514;19.218;2023-02-12T11:32:15;10.68;63.94
68189;DHT22;66299;47.514;19.218;2023-02-12T11:35:03;11.21;63.46
68189;DHT22;66299;47.514;19.218;2023-02-12T11:37:33;10.87;62.67
68189;DHT22;66299;47.514;19.218;2023-02-12T11:40:10;11.19;61.94
68189;DHT22;66299;47.514;19.218;2023-02-12T11:42:50;11.09;62.42
68189;DHT22;66299;47.514;19.218;2023-02-12T11:45:21;11.12;61.55
68189;DHT22;66299;47.514;19.218;2023-02-12T11:47:55;10.77;62.53
68189;DHT22;66299;47.514;19.218;2023-02-12T11:50:28;10.90;61.95
68189;DHT22;66299;47.514;19.218;2023-02-12T11:53:02;10.46;63.21
68189;DHT22;66299;47.514;19.218;2023-02-12T11:55:36;10.22;63.59
68189;DHT22;66299;47.514;19.218;2023-02-12T11:58:14;10.17;64.34
68189;DHT22;66299;47.514;19.218;2023-02-12T12:00:48;10.23;64.13
68189;DHT22;66299;47.514;19.218;2023-02-12T12:03:22;10.29;64.07
68189;DHT22;66299;47.514;19.218;2023-02-12T12:05:59;10.36;63.49
68189;DHT22;66299;47.514;19.218;2023-02-12T12:08:35;9.89;64.08
68189;DHT22;66299;47.514;19.218;2023-02-12T12:11:10;9.85;64.42
68189;DHT22;66299;47.514;19.218;2023-02-12T12:13:45;9.65;65.33
68189;DHT22;66299;47.514;19.218;2023-02-12T12:16:23;9.77;66.99
68189;DHT22;66299;47.514;19.218;2023-02-12T12:19:14;9.62;67.53
68189;DHT22;66299;47.514;19.218;2023-02-12T12:22:15;9.62;67.81
68189;DHT22;66299;47.514;19.218;2023-02-12T12:24:55;9.51;67.88
68189;DHT22;66299;47.514;19.218;2023-02-12T12:27:31;9.40;68.26
68189;DHT22;66299;47.514;19.218;2023-02-12T12:30:26;9.51;67.67
68189;DHT22;66299;47.514;19.218;2023-02-12T12:32:58;9.13;68.17
68189;DHT22;66299;47.514;19.218;2023-02-12T12:35:37;9.30;67.79
68189;DHT22;66299;47.514;19.218;2023-02-12T12:38:18;9.13;68.18
68189;DHT22;66299;47.514;19.218;2023-02-12T12:41:00;9.00;68.64
68189;DHT22;66299;47.514;19.218;2023-02-12T12:43:38;8.76;68.96
68189;DHT22;66299;47.514;19.218;2023-02-12T12:46:23;8.67;68.45
68189;DHT22;66299;47.514;19.218;2023-02-12T12:49:16;8.64;69.02
68189;DHT22;66299;47.514;19.218;2023-02-12T12:52:06;8.62;69.06
68189;DHT22;66299;47.514;19.218;2023-02-12T12:54:51;8.44;69.72
68189;DHT22;66299;47.514;19.218;2023-02-12T12:57:42;8.52;69.13
68189;DHT22;66299;47.514;19.218;2023-02-12T13:00:23;8.33;69.77
68189;DHT22;66299;47.514;19.218;2023-02-12T13:03:08;8.16;70.50
68189;DHT22;66299;47.514;19.218;2023-02-12T13:05:53;8.33;69.87
68189;DHT22;66299;47.514;19.218;2023-02-12T13:08:38;8.24;69.88
68189;DHT22;66299;47.514;19.218;2023-02-12T13:11:20;8.31;69.73
68189;DHT22;66299;47.514;19.218;2023-02-12T13:14:07;8.11;70.37
68189;DHT22;66299;47.514;19.218;2023-02-12T13:16:44;8.21;69.90
68189;DHT22;66299;47.514;19.218;2023-02-12T13:19:23;7.96;70.41
68189;DHT22;66299;47.514;19.218;2023-02-12T13:21:58;8.07;70.28
68189;DHT22;66299;47.514;19.218;2023-02-12T13:24:34;8.14;70.05
68189;DHT22;66299;47.514;19.218;2023-02-12T13:27:12;8.19;69.95
68189;DHT22;66299;47.514;19.218;2023-02-12T13:29:46;8.13;70.26
68189;DHT22;66299;47.514;19.218;2023-02-12T13:32:22;7.97;70.52
68189;DHT22;66299;47.514;19.218;2023-02-12T13:34:54;7.73;70.81
68189;DHT22;66299;47.514;19.218;2023-02-12T13:37:30;8.54;68.66
68189;DHT22;66299;47.514;19.218;2023-02-12T13:40:04;8.73;67.97
68189;DHT22;66299;47.514;19.218;2023-02-12T13:42:48;8.80;67.39
68189;DHT22;66299;47.514;19.218;2023-02-12T13:45:37;8.76;68.09
68189;DHT22;66299;47.514;19.218;2023-02-12T13:48:22;8.76;68.26
68189;DHT22;66299;47.514;19.218;2023-02-12T13:51:03;8.65;68.57
68189;DHT22;66299;47.514;19.218;2023-02-12T13:53:46;8.78;67.87
68189;DHT22;66299;47.514;19.218;2023-02-12T13:56:32;8.65;67.89
68189;DHT22;66299;47.514;19.218;2023-02-12T13:59:39;8.48;68.28
68189;DHT22;66299;47.514;19.218;2023-02-12T14:05:29;8.52;68.91
68189;DHT22;66299;47.514;19.218;2023-02-12T14:08:01;8.50;68.68
68189;DHT22;66299;47.514;19.218;2023-02-12T14:10:34;8.57;68.47
68189;DHT22;66299;47.514;19.218;2023-02-12T14:13:14;8.40;68.81
68189;DHT22;66299;47.514;19.218;2023-02-12T14:15:48;8.37;69.25
68189;DHT22;66299;47.514;19.218;2023-02-12T14:18:27;8.38;69.06
68189;DHT22;66299;47.514;19.218;2023-02-12T14:27:43;7.81;70.59
68189;DHT22;66299;47.514;19.218;2023-02-12T14:30:28;7.90;70.21
68189;DHT22;66299;47.514;19.218;2023-02-12T14:33:20;7.72;70.70
68189;DHT22;66299;47.514;19.218;2023-02-12T14:36:34;7.68;70.60
68189;DHT22;66299;47.514;19.218;2023-02-12T14:39:26;7.61;70.67
68189;DHT22;66299;47.514;19.218;2023-02-12T14:45:00;7.30;71.63
68189;DHT22;66299;47.514;19.218;2023-02-12T14:50:27;7.27;71.44
68189;DHT22;66299;47.514;19.218;2023-02-12T14:53:04;7.23;71.44
68189;DHT22;66299;47.514;19.218;2023-02-12T14:55:34;7.14;71.81
68189;DHT22;66299;47.514;19.218;2023-02-12T14:58:06;7.13;71.89
68189;DHT22;66299;47.514;19.218;2023-02-12T15:00:45;7.13;71.99
68189;DHT22;66299;47.514;19.218;2023-02-12T15:03:24;7.23;71.78
68189;DHT22;66299;47.514;19.218;2023-02-12T15:06:01;7.21;71.91
68189;DHT22;66299;47.514;19.218;2023-02-12T15:08:38;7.13;71.97
68189;DHT22;66299;47.514;19.218;2023-02-12T15:11:18;7.10;72.20
68189;DHT22;66299;47.514;19.218;2023-02-12T15:13:53;7.00;72.45
68189;DHT22;66299;47.514;19.218;2023-02-12T15:16:34;6.90;72.96
68189;DHT22;66299;47.514;19.218;2023-02-12T15:19:16;6.87;72.93
68189;DHT22;66299;47.514;19.218;2023-02-12T15:21:51;6.85;72.80
68189;DHT22;66299;47.514;19.218;2023-02-12T15:24:26;6.82;72.82
68189;DHT22;66299;47.514;19.218;2023-02-12T15:26:57;6.72;72.94
68189;DHT22;66299;47.514;19.218;2023-02-12T15:29:36;6.59;73.35
68189;DHT22;66299;47.514;19.218;2023-02-12T15:32:16;6.52;73.57
68189;DHT22;66299;47.514;19.218;2023-02-12T15:34:50;6.39;73.82
68189;DHT22;66299;47.514;19.218;2023-02-12T15:37:24;6.24;74.40
68189;DHT22;66299;47.514;19.218;2023-02-12T15:39:55;6.11;74.72
68189;DHT22;66299;47.514;19.218;2023-02-12T15:42:28;5.98;74.99
68189;DHT22;66299;47.514;19.218;2023-02-12T15:45:07;5.96;75.23
68189;DHT22;66299;47.514;19.218;2023-02-12T15:47:46;5.91;75.27
68189;DHT22;66299;47.514;19.218;2023-02-12T15:50:23;5.76;75.60
68189;DHT22;66299;47.514;19.218;2023-02-12T15:52:54;5.63;76.02
68189;DHT22;66299;47.514;19.218;2023-02-12T15:55:27;5.58;76.32
68189;DHT22;66299;47.514;19.218;2023-02-12T15:57:59;5.52;76.45
68189;DHT22;66299;47.514;19.218;2023-02-12T16:00:33;5.49;76.65
68189;DHT22;66299;47.514;19.218;2023-02-12T16:03:05;5.39;76.78
68189;DHT22;66299;47.514;19.218;2023-02-12T16:05:33;5.27;77.16
68189;DHT22;66299;47.514;19.218;2023-02-12T16:08:09;5.17;77.49
68189;DHT22;66299;47.514;19.218;2023-02-12T16:10:44;5.02;77.90
68189;DHT22;66299;47.514;19.218;2023-02-12T16:13:20;4.88;78.45
68189;DHT22;66299;47.514;19.218;2023-02-12T16:16:03;4.74;78.79
68189;DHT22;66299;47.514;19.218;2023-02-12T16:18:33;4.56;79.19
68189;DHT22;66299;47.514;19.218;2023-02-12T16:21:04;4.38;80.32
68189;DHT22;66299;47.514;19.218;2023-02-12T16:23:35;4.25;80.83
68189;DHT22;66299;47.514;19.218;2023-02-12T16:26:04;4.22;80.83
68189;DHT22;66299;47.514;19.218;2023-02-12T16:28:33;4.11;81.40
68189;DHT22;66299;47.514;19.218;2023-02-12T16:31:09;3.87;81.81
68189;DHT22;66299;47.514;19.218;2023-02-12T16:33:44;3.75;82.16
68189;DHT22;66299;47.514;19.218;2023-02-12T16:36:27;3.70;82.60